Flight Track Log - Related Links

Times and Time Zones

All times are in EDT time to prevent confusion due to time zone crossing. See the N16112 flight status page for this flight to view local times or setup timezone preferences in your user account.

Time Position Orientation Groundspeed Altitude Reporting Facility
EDT Latitude Longitude Course Direction KTS MPH feet Rate Location/Type
Sun 08:28:56 PM 41.9333 -87.9167 132° Southeast 173 199 2,500  Level Chicago TRACON
Sun 08:29:56 PM 41.9000 -87.8667 132° Southeast 191 220 4,600 1,232 Climbing Chicago TRACON
Sun 08:31:27 PM 41.9064 -87.7389 86° East 241 277 5,600 1,569 Climbing Chicago Center
Sun 08:32:29 PM 41.9108 -87.6092 87° East 287 330 8,600 2,565 Climbing Chicago Center
Sun 08:33:31 PM 41.9444 -87.5000 67° East 321 369 10,900 2,081 Climbing Chicago Center
Sun 08:34:33 PM 41.9889 -87.3875 62° Northeast 336 387 12,900 1,403 Climbing Chicago Center
Sun 08:35:35 PM 42.0369 -87.2633 62° Northeast 371 427 13,800 1,403 Climbing Chicago Center
Sun 08:36:37 PM 42.0875 -87.1303 63° Northeast 395 455 15,800 1,694 Climbing Chicago Center
Sun 08:37:39 PM 42.1156 -86.9872 75° East 401 461 17,300 1,597 Climbing Chicago Center
Sun 08:38:41 PM 42.1211 -86.8058 88° East 404 465 19,100 1,561 Climbing Chicago Center
Sun 08:39:42 PM 42.1264 -86.6683 87° East 411 473 20,500 1,561 Climbing Chicago Center
Sun 08:40:44 PM 42.1325 -86.5131 87° East 416 479 22,300 2,177 Climbing Chicago Center
Sun 08:41:46 PM 42.1378 -86.3403 88° East 388 447 25,000 1,306 Climbing Chicago Center
Sun 08:42:48 PM 42.1408 -86.1892 88° East 393 452 25,000  Level Chicago Center
Sun 08:43:50 PM 42.1408 -86.0325 90° East 420 483 25,000  Level Chicago Center
Sun 08:44:53 PM 42.1375 -85.8806 92° East 439 505 25,000  Level Chicago Center
Sun 08:45:54 PM 42.1317 -85.6772 92° East 454 522 25,000  Level Chicago Center
Sun 08:46:56 PM 42.1264 -85.5044 85° East 464 534 25,000  Level Chicago Center
Sun 08:47:59 PM 42.1253 -85.3125 90° East 462 532 25,000  Level Cleveland Center
Sun 08:48:59 PM 42.1192 -85.1553 93° East 462 532 25,000  Level Cleveland Center
Sun 08:49:59 PM 42.1114 -84.9781 93° East 467 537 25,000  Level Cleveland Center
Sun 08:50:59 PM 42.1056 -84.8014 92° East 467 537 25,000  Level Cleveland Center
Sun 08:51:59 PM 42.1011 -84.6331 92° East 462 532 25,000  Level Cleveland Center
Sun 08:52:59 PM 42.0947 -84.4536 93° East 462 532 25,000 -350 Level Cleveland Center
Sun 08:53:59 PM 42.0803 -84.2622 96° East 468 539 24,300 -500 Descending Cleveland Center
Sun 08:54:59 PM 42.0733 -84.0856 93° East 468 539 24,000 -150 Descending Cleveland Center
Sun 08:55:59 PM 42.0678 -83.9147 92° East 462 532 24,000  Level Cleveland Center
Sun 08:56:59 PM 42.0583 -83.7381 94° East 462 532 24,000 -150 Level Cleveland Center
Sun 08:57:59 PM 42.0503 -83.5669 94° East 462 532 23,700 -850 Descending Cleveland Center
Sun 08:58:59 PM 42.0381 -83.3903 95° East 462 532 22,300 -1,450 Descending Cleveland Center
Sun 08:59:59 PM 42.0233 -83.2247 97° East 457 526 20,800 -1,450 Descending Cleveland Center
Sun 09:00:59 PM 42.0100 -83.0758 97° East 452 520 19,400 -1,450 Descending Cleveland Center
Sun 09:01:59 PM 41.9925 -82.9133 98° East 441 507 17,900 -1,450 Descending Cleveland Center
Sun 09:02:59 PM 41.9769 -82.7589 98° East 429 494 16,500 -1,500 Descending Cleveland Center
Sun 09:04:11 PM 41.9556 -82.5600 98° East 422 486 14,600 -1,608 Descending Cleveland Center
Sun 09:04:36 PM 41.9397 -82.5036 111° Southeast 417 480 13,900 -1,625 Descending Cleveland Center
Sun 09:04:59 PM 41.9281 -82.4558 108° East 418 481 13,300 -2,066 Descending Cleveland Center
Sun 09:05:37 PM 41.8961 -82.3628 115° Southeast 400 460 11,800 -2,100 Descending Cleveland Center
Sun 09:05:59 PM 41.8842 -82.3181 110° East 404 465 11,200 -1,889 Descending Cleveland Center
Sun 09:06:31 PM 41.8583 -82.2364 113° Southeast 388 447 10,100 -1,200 Descending Cleveland Center
Sun 09:06:59 PM 41.8425 -82.1886 114° Southeast 390 449 10,000 -98 Descending Cleveland Center
Sun 09:07:32 PM 41.7975 -82.1261 134° Southeast 369 425 10,000  Level Cleveland Center
Sun 09:07:59 PM 41.7667 -82.0919 140° Southeast 375 432 10,000  Level Cleveland Center
Sun 09:08:39 PM 41.7028 -82.0322 145° Southeast 369 425 10,000  Level Cleveland Center
Sun 09:08:59 PM 41.6842 -82.0122 141° Southeast 369 425 10,000  Level Cleveland Center
Sun 09:09:40 PM 41.6203 -81.9525 145° Southeast 371 427 10,000  Level Cleveland Center
Sun 09:09:59 PM 41.6017 -81.9356 146° Southeast 370 426 10,000 -222 Level Cleveland Center
Sun 09:10:34 PM 41.5481 -81.8983 153° Southeast 295 339 9,800 -700 Descending Cleveland Center
Sun 09:10:59 PM 41.5272 -81.8839 153° Southeast 329 379 9,300 -1,574 Descending Cleveland Center
Sun 09:11:35 PM 41.4775 -81.8664 165° South 268 308 8,200 -1,300 Descending Cleveland Center
Sun 09:11:59 PM 41.4606 -81.8853 220° Southwest 251 289 8,000 -197 Descending Cleveland Center
Sun 09:12:36 PM 41.4286 -81.9344 229° Southwest 264 304 8,000 -500 Level Cleveland Center
Sun 09:12:59 PM 41.4161 -81.9564 233° Southwest 237 273 7,500 -1,855 Descending Cleveland Center
Sun 09:13:31 PM 41.3883 -82.0058 233° Southwest 248 285 6,300 -2,000 Descending Cleveland Center
Sun 09:13:59 PM 41.3733 -82.0331 234° Southwest 258 297 5,500 -1,881 Descending Cleveland Center
Sun 09:14:38 PM 41.3331 -82.0764 219° Southwest 256 295 4,200 -2,000 Descending Cleveland Center

Login

Don't have an account? Register now (free) for customized features, flight alerts, and more!